Bartonville, Texas
Current Conditions -  °F | °C
As of 9:53 AM on Friday 28 Nov 2014 (Local Time) from KDTO Reporting Station
Clear Clear  
Wind Chill: 56°   Ceiling: Unl
Heat Index: 56°   Visibility: 10mi
Dew Point: 41°   Wind: 17mph
Humidity: 57%   Direction: 200°SSW
Pressure: 30.21"   Gusts: NA
Location:  33.108°N, 97.1641°W
Report Text: KDTO 281553Z 20015KT 10SM CLR 13/05 A3021 RMK AO2 SLP230 T01330050
Loading
Personal Weather Stations






























Interactive Weather Map New forecast layout! Learn more

10-Day Weather Forecast

Advertisements
Track Severe Weather on mobile